createdAt,value
2022-10-19T00:02:08.693Z,102278.28
2022-10-19T00:04:35.297Z,102274.78
2022-10-19T00:07:01.833Z,102276.47
2022-10-19T00:09:29.224Z,102277.41
2022-10-19T00:11:55.824Z,102280.25
2022-10-19T00:14:23.791Z,102274.25
2022-10-19T00:16:51.893Z,102282.06
2022-10-19T00:19:25.161Z,102278.56
2022-10-19T00:21:51.773Z,102279.41
2022-10-19T00:24:19.013Z,102276.03
2022-10-19T00:26:45.609Z,102273.25
2022-10-19T00:29:13.555Z,102270.91
2022-10-19T00:31:40.926Z,102290.16
2022-10-19T00:34:07.560Z,102283.88
2022-10-19T00:36:37.737Z,102287.38
2022-10-19T00:39:06.815Z,102290.16
2022-10-19T00:41:35.911Z,102287.50
2022-10-19T00:44:03.763Z,102279.53
2022-10-19T00:46:33.872Z,102277.19
2022-10-19T00:49:12.968Z,102282.19
2022-10-19T00:51:45.821Z,102279.69
2022-10-19T00:54:12.721Z,102271.59
2022-10-19T00:56:41.058Z,102272.44
2022-10-19T00:59:08.146Z,102276.03
2022-10-19T01:01:35.056Z,102282.19
2022-10-19T01:04:02.119Z,102283.06
2022-10-19T01:06:28.921Z,102276.03
2022-10-19T01:08:55.486Z,102278.88
2022-10-19T01:11:40.060Z,102283.34
2022-10-19T01:14:18.593Z,102290.44
2022-10-19T01:17:05.493Z,102277.19
2022-10-19T01:19:53.821Z,102283.47
2022-10-19T01:22:48.066Z,102279.84
2022-10-19T01:25:17.651Z,102275.50
2022-10-19T01:27:57.056Z,102270.22
2022-10-19T01:30:45.287Z,102276.38
2022-10-19T01:33:24.313Z,102274.69
2022-10-19T01:36:03.133Z,102268.41
2022-10-19T01:39:19.159Z,102258.78
2022-10-19T01:42:03.590Z,102263.25
2022-10-19T01:44:42.194Z,102259.72
2022-10-19T01:47:14.801Z,102264.22
2022-10-19T01:49:53.493Z,102262.53
2022-10-19T01:52:21.116Z,102255.41
2022-10-19T01:54:51.193Z,102261.56
2022-10-19T01:57:23.345Z,102260.06
2022-10-19T01:59:50.201Z,102259.88
2022-10-19T02:02:17.371Z,102253.06
2022-10-19T02:04:44.488Z,102249.56
2022-10-19T02:07:11.782Z,102246.38
2022-10-19T02:09:38.346Z,102241.06
2022-10-19T02:12:09.167Z,102251.66
2022-10-19T02:14:41.219Z,102250.84
2022-10-19T02:17:10.819Z,102245.56
2022-10-19T02:19:38.913Z,102247.50
2022-10-19T02:22:05.639Z,102254.50
2022-10-19T02:24:32.217Z,102252.81
2022-10-19T02:27:00.566Z,102245.84
2022-10-19T02:29:27.626Z,102244.16
2022-10-19T02:31:54.225Z,102244.31
2022-10-19T02:34:20.805Z,102245.16
2022-10-19T02:36:47.399Z,102240.00
2022-10-19T02:39:14.328Z,102236.50
2022-10-19T02:41:53.075Z,102240.00
2022-10-19T02:44:24.000Z,102233.84
2022-10-19T02:46:55.785Z,102237.34
2022-10-19T02:49:22.672Z,102232.84
2022-10-19T02:52:01.006Z,102241.00
2022-10-19T02:54:28.489Z,102246.81
2022-10-19T02:56:55.732Z,102239.72
2022-10-19T02:59:22.636Z,102236.50
2022-10-19T03:01:49.438Z,102235.81
2022-10-19T03:04:16.099Z,102237.50
2022-10-19T03:06:42.832Z,102236.50
2022-10-19T03:09:09.975Z,102231.34
2022-10-19T03:11:36.560Z,102231.34
2022-10-19T03:14:03.136Z,102233.31
2022-10-19T03:16:29.681Z,102226.88
2022-10-19T03:18:56.282Z,102238.34
2022-10-19T03:21:22.868Z,102242.66
2022-10-19T03:23:49.469Z,102241.81
2022-10-19T03:26:17.669Z,102243.63
2022-10-19T03:28:44.349Z,102229.53
2022-10-19T03:31:11.010Z,102233.16
2022-10-19T03:33:37.586Z,102236.81
2022-10-19T03:36:23.270Z,102241.28
2022-10-19T03:38:51.695Z,102244.91
2022-10-19T03:41:19.578Z,102252.72
2022-10-19T03:43:46.399Z,102250.91
2022-10-19T03:46:13.038Z,102259.84
2022-10-19T03:48:39.698Z,102259.84
2022-10-19T03:51:09.415Z,102262.63
2022-10-19T03:53:36.314Z,102270.59
2022-10-19T03:56:08.136Z,102263.50
2022-10-19T03:58:37.136Z,102267.09
2022-10-19T04:01:11.611Z,102254.81
2022-10-19T04:03:38.448Z,102267.09
2022-10-19T04:06:07.525Z,102268.94
2022-10-19T04:08:34.474Z,102260.00
2022-10-19T04:11:05.810Z,102268.09
2022-10-19T04:13:33.120Z,102270.59
2022-10-19T04:16:00.347Z,102275.06
2022-10-19T04:18:27.127Z,102277.56
2022-10-19T04:20:57.978Z,102276.75
2022-10-19T04:23:26.917Z,102281.22
2022-10-19T04:25:53.593Z,102280.53
2022-10-19T04:28:20.238Z,102291.81
2022-10-19T04:30:46.833Z,102294.47
2022-10-19T04:33:13.517Z,102291.81
2022-10-19T04:35:40.119Z,102294.47
2022-10-19T04:38:06.705Z,102295.47
2022-10-19T04:40:35.510Z,102298.94
2022-10-19T04:43:02.460Z,102301.59
2022-10-19T04:45:29.061Z,102298.13
2022-10-19T04:47:56.631Z,102302.44
2022-10-19T04:50:24.127Z,102296.28
2022-10-19T04:52:50.753Z,102307.88
2022-10-19T04:55:17.337Z,102297.28
2022-10-19T04:57:43.922Z,102300.78
2022-10-19T05:00:11.077Z,102307.06
2022-10-19T05:02:41.956Z,102305.25
2022-10-19T05:05:08.830Z,102291.97
2022-10-19T05:07:35.788Z,102289.47
2022-10-19T05:10:02.870Z,102293.81
2022-10-19T05:12:29.436Z,102285.13
2022-10-19T05:14:56.055Z,102289.78
2022-10-19T05:17:22.614Z,102292.28
2022-10-19T05:19:49.190Z,102285.13
2022-10-19T05:22:15.747Z,102298.25
2022-10-19T05:24:42.317Z,102306.38
2022-10-19T05:27:08.878Z,102306.22
2022-10-19T05:29:35.478Z,102302.72
2022-10-19T05:32:02.033Z,102310.69
2022-10-19T05:34:28.605Z,102308.03
2022-10-19T05:36:56.151Z,102303.03
2022-10-19T05:39:23.119Z,102307.34
2022-10-19T05:41:49.867Z,102301.91
2022-10-19T05:44:18.968Z,102312.66
2022-10-19T05:46:45.995Z,102315.47
2022-10-19T05:49:13.298Z,102315.31
2022-10-19T05:51:40.221Z,102312.53
2022-10-19T05:54:07.929Z,102310.84
2022-10-19T05:56:34.494Z,102314.47
2022-10-19T05:59:03.694Z,102315.47
2022-10-19T06:01:30.822Z,102311.81
2022-10-19T06:03:58.547Z,102316.31
2022-10-19T06:06:26.167Z,102315.31
2022-10-19T06:08:54.123Z,102319.63
2022-10-19T06:11:23.110Z,102321.28
2022-10-19T06:13:50.929Z,102319.78
2022-10-19T06:16:18.938Z,102321.47
2022-10-19T06:18:45.526Z,102326.78
2022-10-19T06:21:17.947Z,102332.91
2022-10-19T06:23:44.777Z,102329.25
2022-10-19T06:26:13.357Z,102327.59
2022-10-19T06:28:41.688Z,102338.22
2022-10-19T06:31:09.373Z,102337.22
2022-10-19T06:33:36.622Z,102339.88
2022-10-19T06:36:11.736Z,102343.22
2022-10-19T06:38:38.662Z,102342.53
2022-10-19T06:41:05.561Z,102356.63
2022-10-19T06:43:32.410Z,102353.84
2022-10-19T06:45:59.170Z,102358.31
2022-10-19T06:48:25.857Z,102353.72
2022-10-19T06:50:59.351Z,102362.47
2022-10-19T06:53:26.256Z,102367.78
2022-10-19T06:55:53.108Z,102376.75
2022-10-19T06:58:19.652Z,102369.63
2022-10-19T07:00:46.328Z,102378.41
2022-10-19T07:03:12.989Z,102376.75
2022-10-19T07:05:39.585Z,102389.03
2022-10-19T07:08:06.226Z,102385.56
2022-10-19T07:10:32.833Z,102387.22
2022-10-19T07:12:59.444Z,102388.88
2022-10-19T07:15:26.100Z,102389.41
2022-10-19T07:17:53.166Z,102394.91
2022-10-19T07:20:19.739Z,102400.22
2022-10-19T07:22:46.329Z,102407.31
2022-10-19T07:25:12.959Z,102403.00
2022-10-19T07:27:40.576Z,102405.50
2022-10-19T07:30:07.891Z,102395.03
2022-10-19T07:32:34.482Z,102389.16
2022-10-19T07:35:01.055Z,102394.31
2022-10-19T07:37:27.646Z,102392.53
2022-10-19T07:39:54.228Z,102382.59
2022-10-19T07:44:52.252Z,102379.78
2022-10-19T07:47:19.333Z,102383.16
2022-10-19T07:49:45.896Z,102385.66
2022-10-19T07:52:12.543Z,102383.00
2022-10-19T07:54:39.135Z,102382.16
2022-10-19T07:57:05.744Z,102380.06
2022-10-19T07:59:32.317Z,102387.72
2022-10-19T08:02:02.335Z,102384.94
2022-10-19T08:04:55.990Z,102384.94
2022-10-19T08:07:15.969Z,102394.56
2022-10-19T08:09:58.034Z,102399.03
2022-10-19T08:12:24.642Z,102405.19
2022-10-19T08:14:51.348Z,102404.50
2022-10-19T08:17:17.972Z,102403.78
2022-10-19T08:19:45.792Z,102401.16
2022-10-19T08:22:12.729Z,102401.84
2022-10-19T08:24:39.392Z,102403.53
2022-10-19T08:27:05.989Z,102403.38
2022-10-19T08:29:32.576Z,102407.84
2022-10-19T08:31:59.534Z,102404.50
2022-10-19T08:34:26.252Z,102412.16
2022-10-19T08:36:52.849Z,102413.00
2022-10-19T08:39:19.520Z,102411.03
2022-10-19T08:42:01.272Z,102413.28
2022-10-19T08:44:52.101Z,102417.59
2022-10-19T08:47:40.395Z,102417.72
2022-10-19T08:50:18.395Z,102416.91
2022-10-19T08:52:47.849Z,102412.56
2022-10-19T08:55:20.433Z,102413.53
2022-10-19T08:57:57.617Z,102411.59
2022-10-19T09:03:43.849Z,102419.72
2022-10-19T09:06:30.928Z,102427.94
2022-10-19T09:08:58.146Z,102422.63
2022-10-19T09:11:27.762Z,102422.63
2022-10-19T09:14:16.941Z,102427.94
2022-10-19T09:16:43.571Z,102426.13
2022-10-19T09:19:18.309Z,102431.31
2022-10-19T09:21:49.725Z,102437.31
2022-10-19T09:24:28.761Z,102441.75
2022-10-19T09:27:00.552Z,102440.09
2022-10-19T09:29:38.730Z,102440.22
2022-10-19T09:32:14.420Z,102443.72
2022-10-19T09:34:46.690Z,102447.38
2022-10-19T09:37:21.216Z,102448.50
2022-10-19T09:39:54.173Z,102451.97
2022-10-19T09:42:30.182Z,102444.31
2022-10-19T09:44:58.819Z,102451.28
2022-10-19T09:47:36.061Z,102454.09
2022-10-19T09:50:25.408Z,102455.06
2022-10-19T09:53:05.536Z,102456.03
2022-10-19T09:58:13.671Z,102451.56
2022-10-19T10:00:44.909Z,102463.59
2022-10-19T10:03:43.536Z,102467.75
2022-10-19T10:06:14.506Z,102463.31
2022-10-19T10:08:47.363Z,102464.84
2022-10-19T10:11:37.773Z,102466.50
2022-10-19T10:14:19.777Z,102466.22
2022-10-19T10:16:46.782Z,102464.97
2022-10-19T10:19:16.224Z,102466.91
2022-10-19T10:21:47.904Z,102456.81
2022-10-19T10:24:16.329Z,102451.22
2022-10-19T10:26:48.940Z,102460.88
2022-10-19T10:29:21.894Z,102463.38
2022-10-19T10:32:09.303Z,102459.75
2022-10-19T10:35:01.090Z,102456.53
2022-10-19T10:37:46.974Z,102462.13
2022-10-19T10:40:23.770Z,102459.00
2022-10-19T10:42:51.876Z,102466.28
2022-10-19T10:45:33.384Z,102457.81
2022-10-19T10:48:15.025Z,102455.50
2022-10-19T10:50:41.565Z,102450.72
2022-10-19T10:53:37.248Z,102440.00
2022-10-19T10:56:06.139Z,102446.16
2022-10-19T10:58:47.669Z,102462.63
2022-10-19T11:01:24.315Z,102452.75
2022-10-19T11:04:15.562Z,102445.03
2022-10-19T11:06:45.950Z,102446.25
2022-10-19T11:09:51.396Z,102446.16
2022-10-19T11:12:19.912Z,102436.28
2022-10-19T11:14:46.417Z,102446.66
2022-10-19T11:17:19.990Z,102448.88
2022-10-19T11:19:46.700Z,102457.31
2022-10-19T11:22:35.356Z,102455.09
2022-10-19T11:25:05.039Z,102461.53
2022-10-19T11:27:47.762Z,102461.00
2022-10-19T11:30:18.368Z,102452.31
2022-10-19T11:32:47.815Z,102462.78
2022-10-19T11:35:41.837Z,102454.00
2022-10-19T11:38:20.593Z,102451.22
2022-10-19T11:41:33.518Z,102446.59
2022-10-19T11:44:15.122Z,102451.75
2022-10-19T11:47:09.091Z,102442.94
2022-10-19T11:50:05.000Z,102449.09
2022-10-19T11:52:53.415Z,102435.28
2022-10-19T11:55:57.758Z,102437.22
2022-10-19T11:58:35.084Z,102436.38
2022-10-19T12:01:34.184Z,102437.38
2022-10-19T12:05:09.444Z,102433.59
2022-10-19T12:08:11.112Z,102433.31
2022-10-19T12:11:07.040Z,102435.09
2022-10-19T12:13:47.606Z,102423.81
2022-10-19T12:16:14.936Z,102430.78
2022-10-19T12:18:51.018Z,102431.63
2022-10-19T12:21:27.852Z,102440.00
2022-10-19T12:23:54.669Z,102439.84
2022-10-19T12:26:22.366Z,102429.66
2022-10-19T12:28:59.807Z,102432.63
2022-10-19T12:31:27.517Z,102433.72
2022-10-19T12:34:15.299Z,102426.88
2022-10-19T12:37:03.851Z,102429.84
2022-10-19T12:39:34.128Z,102428.03
2022-10-19T12:42:00.617Z,102429.84
2022-10-19T12:44:33.135Z,102421.03
2022-10-19T12:47:08.642Z,102419.09
2022-10-19T12:49:38.455Z,102416.25
2022-10-19T12:52:07.789Z,102414.81
2022-10-19T12:54:36.600Z,102411.38
2022-10-19T12:57:04.477Z,102411.84
2022-10-19T12:59:37.653Z,102412.84
2022-10-19T13:02:06.528Z,102405.16
2022-10-19T13:04:34.566Z,102408.41
2022-10-19T13:07:03.914Z,102409.84
2022-10-19T13:09:42.284Z,102412.50
2022-10-19T13:12:17.816Z,102411.66
2022-10-19T13:15:02.363Z,102410.53
2022-10-19T13:17:37.953Z,102412.50
2022-10-19T13:20:13.745Z,102401.88
2022-10-19T13:22:40.447Z,102405.50
2022-10-19T13:25:28.829Z,102402.94
2022-10-19T13:27:57.433Z,102397.19
2022-10-19T13:30:36.307Z,102397.75
2022-10-19T13:33:24.723Z,102398.81
2022-10-19T13:36:00.295Z,102393.41
2022-10-19T13:38:59.025Z,102394.72
2022-10-19T13:41:45.985Z,102394.19
2022-10-19T13:44:18.500Z,102390.91
2022-10-19T13:47:03.206Z,102390.59
2022-10-19T13:49:36.210Z,102390.81
2022-10-19T13:52:27.595Z,102390.69
2022-10-19T13:55:00.131Z,102385.50
2022-10-19T13:57:47.809Z,102386.03
2022-10-19T14:00:37.180Z,102384.22
2022-10-19T14:03:35.235Z,102382.91
2022-10-19T14:06:11.495Z,102384.72
2022-10-19T14:08:44.923Z,102382.22
2022-10-19T14:11:35.670Z,102385.72
2022-10-19T14:14:11.300Z,102374.56
2022-10-19T14:16:46.579Z,102384.34
2022-10-19T14:19:14.618Z,102384.06
2022-10-19T14:21:41.263Z,102388.13
2022-10-19T14:24:31.384Z,102382.38
2022-10-19T14:27:00.659Z,102379.78
2022-10-19T14:29:27.238Z,102372.31
2022-10-19T14:31:54.079Z,102363.00
2022-10-19T14:34:20.739Z,102372.34
2022-10-19T14:36:49.132Z,102372.34
2022-10-19T14:39:24.923Z,102361.38
2022-10-19T14:41:54.991Z,102364.03
2022-10-19T14:44:50.454Z,102368.38
2022-10-19T14:47:23.629Z,102363.59
2022-10-19T14:49:50.753Z,102364.69
2022-10-19T14:52:25.736Z,102364.78
2022-10-19T14:54:53.710Z,102363.31
2022-10-19T14:57:29.488Z,102357.00
2022-10-19T15:00:02.379Z,102362.81
2022-10-19T15:02:32.595Z,102363.25
2022-10-19T15:05:01.002Z,102351.00
2022-10-19T15:07:36.352Z,102356.19
2022-10-19T15:10:05.940Z,102354.44
2022-10-19T15:12:38.139Z,102363.63
2022-10-19T15:15:26.009Z,102363.72
2022-10-19T15:18:00.557Z,102357.13
2022-10-19T15:20:28.206Z,102352.63
2022-10-19T15:22:56.288Z,102358.47
2022-10-19T15:25:33.986Z,102358.31
2022-10-19T15:28:36.159Z,102357.78
2022-10-19T15:31:14.516Z,102362.81
2022-10-19T15:33:45.458Z,102366.34
2022-10-19T15:36:19.607Z,102364.31
2022-10-19T15:39:11.402Z,102360.13
2022-10-19T15:41:46.005Z,102369.09
2022-10-19T15:44:34.173Z,102367.19
2022-10-19T15:47:15.967Z,102369.28
2022-10-19T15:49:42.535Z,102369.75
2022-10-19T15:52:28.824Z,102373.38
2022-10-19T15:54:57.406Z,102369.19
2022-10-19T15:57:36.043Z,102367.69
2022-10-19T16:00:11.218Z,102371.47
2022-10-19T16:02:39.063Z,102370.94
2022-10-19T16:07:37.538Z,102376.53
2022-10-19T16:10:04.667Z,102373.22
2022-10-19T16:12:31.236Z,102369.84
2022-10-19T16:14:57.814Z,102373.50
2022-10-19T16:17:24.624Z,102377.94
2022-10-19T16:19:51.375Z,102372.09
2022-10-19T16:22:17.961Z,102376.59
2022-10-19T16:24:44.564Z,102380.38
2022-10-19T16:27:15.136Z,102384.97
2022-10-19T16:29:43.621Z,102390.56
2022-10-19T16:32:10.369Z,102390.69
2022-10-19T16:34:37.145Z,102387.50
2022-10-19T16:37:06.674Z,102386.84
2022-10-19T16:39:34.257Z,102391.44
2022-10-19T16:42:01.014Z,102392.56
2022-10-19T16:44:27.659Z,102396.22
2022-10-19T16:46:56.736Z,102397.88
2022-10-19T16:49:23.330Z,102402.38
2022-10-19T16:51:52.044Z,102402.66
2022-10-19T16:54:21.448Z,102405.59
2022-10-19T16:56:48.600Z,102402.53
2022-10-19T16:59:19.184Z,102406.16
2022-10-19T17:01:46.489Z,102412.47
2022-10-19T17:04:14.634Z,102417.59
2022-10-19T17:06:41.498Z,102414.94
2022-10-19T17:11:54.761Z,102421.38
2022-10-19T17:14:21.333Z,102408.44
2022-10-19T17:16:47.944Z,102419.72
2022-10-19T17:19:14.644Z,102423.63
2022-10-19T17:21:42.495Z,102432.72
2022-10-19T17:24:18.461Z,102433.00
2022-10-19T17:26:48.470Z,102430.34
2022-10-19T17:29:15.140Z,102432.06
2022-10-19T17:31:42.311Z,102432.88
2022-10-19T17:34:09.338Z,102439.31
2022-10-19T17:39:10.825Z,102443.22
2022-10-19T17:41:37.456Z,102447.69
2022-10-19T17:44:04.992Z,102446.84
2022-10-19T17:46:34.059Z,102439.03
2022-10-19T17:49:01.043Z,102443.53
2022-10-19T17:51:29.910Z,102442.66
2022-10-19T17:54:01.948Z,102449.09
2022-10-19T17:56:29.346Z,102442.94
2022-10-19T17:58:57.213Z,102436.09
2022-10-19T18:01:24.177Z,102442.41
2022-10-19T18:03:50.922Z,102447.00
2022-10-19T18:06:22.917Z,102446.31
2022-10-19T18:08:52.306Z,102440.16
2022-10-19T18:11:25.155Z,102448.13
2022-10-19T18:13:52.546Z,102453.00
2022-10-19T18:16:22.156Z,102442.53
2022-10-19T18:18:50.542Z,102447.84
2022-10-19T18:21:20.293Z,102439.88
2022-10-19T18:23:47.043Z,102442.41
2022-10-19T18:26:19.849Z,102448.56
2022-10-19T18:28:46.612Z,102445.91
2022-10-19T18:31:23.968Z,102445.19
2022-10-19T18:33:57.908Z,102440.75
2022-10-19T18:36:24.781Z,102435.69
2022-10-19T18:38:52.126Z,102437.53
2022-10-19T18:41:18.984Z,102434.88
2022-10-19T18:43:53.459Z,102448.28
2022-10-19T18:46:21.558Z,102446.75
2022-10-19T18:48:48.438Z,102444.25
2022-10-19T18:51:15.616Z,102445.09
2022-10-19T18:53:43.128Z,102448.69
2022-10-19T18:56:11.869Z,102454.13
2022-10-19T18:58:38.911Z,102447.16
2022-10-19T19:01:19.778Z,102449.81
2022-10-19T19:03:49.623Z,102442.16
2022-10-19T19:06:42.473Z,102450.13
2022-10-19T19:09:10.614Z,102447.00
2022-10-19T19:11:40.807Z,102448.53
2022-10-19T19:14:16.585Z,102447.00
2022-10-19T19:16:44.340Z,102446.34
2022-10-19T19:19:13.186Z,102453.44
2022-10-19T19:21:43.541Z,102453.56
2022-10-19T19:24:15.356Z,102453.03
2022-10-19T19:26:48.188Z,102462.81
2022-10-19T19:29:15.371Z,102447.84
2022-10-19T19:31:41.982Z,102450.25
2022-10-19T19:34:09.485Z,102449.25
2022-10-19T19:39:14.425Z,102442.28
2022-10-19T19:41:41.053Z,102448.56
2022-10-19T19:44:07.641Z,102443.13
2022-10-19T19:46:34.978Z,102445.91
2022-10-19T19:49:03.050Z,102442.41
2022-10-19T19:51:31.079Z,102439.09
2022-10-19T19:53:58.037Z,102441.88
2022-10-19T19:56:24.826Z,102440.19
2022-10-19T19:58:56.911Z,102440.19
2022-10-19T20:01:23.765Z,102442.00
2022-10-19T20:03:50.542Z,102432.38
2022-10-19T20:06:22.164Z,102440.59
2022-10-19T20:08:51.889Z,102431.22
2022-10-19T20:11:18.526Z,102434.84
2022-10-19T20:13:45.852Z,102440.28
2022-10-19T20:16:23.922Z,102449.09
2022-10-19T20:18:59.856Z,102452.56
2022-10-19T20:21:27.756Z,102458.03
2022-10-19T20:23:54.467Z,102459.97
2022-10-19T20:26:22.733Z,102454.09
2022-10-19T20:28:49.785Z,102449.91
2022-10-19T20:31:17.669Z,102471.53
2022-10-19T20:33:45.263Z,102464.41
2022-10-19T20:36:24.921Z,102456.63
2022-10-19T20:38:54.288Z,102467.34
2022-10-19T20:41:22.604Z,102468.34
2022-10-19T20:43:49.302Z,102465.69
2022-10-19T20:46:18.421Z,102471.81
2022-10-19T20:48:45.558Z,102468.34
2022-10-19T20:51:13.690Z,102468.34
2022-10-19T20:53:40.494Z,102475.44
2022-10-19T20:56:08.795Z,102470.28
2022-10-19T20:58:37.194Z,102460.91
2022-10-19T21:01:11.860Z,102465.22
2022-10-19T21:03:38.624Z,102474.28
2022-10-19T21:06:07.128Z,102472.75
2022-10-19T21:08:35.435Z,102469.13
2022-10-19T21:11:10.577Z,102478.06
2022-10-19T21:13:37.159Z,102477.38
2022-10-19T21:16:14.810Z,102474.31
2022-10-19T21:18:41.772Z,102476.66
2022-10-19T21:21:21.926Z,102475.97
2022-10-19T21:23:50.990Z,102476.78
2022-10-19T21:26:17.937Z,102481.94
2022-10-19T21:28:48.972Z,102470.66
2022-10-19T21:31:16.743Z,102474.31
2022-10-19T21:33:43.790Z,102471.78
2022-10-19T21:36:11.319Z,102475.41
2022-10-19T21:38:37.988Z,102474.44
2022-10-19T21:41:06.908Z,102469.38
2022-10-19T21:43:34.165Z,102468.41
2022-10-19T21:46:05.335Z,102467.84
2022-10-19T21:48:32.595Z,102469.66
2022-10-19T21:50:59.586Z,102465.34
2022-10-19T21:53:26.548Z,102462.13
2022-10-19T21:55:54.703Z,102465.47
2022-10-19T21:58:24.414Z,102466.31
2022-10-19T22:00:51.011Z,102465.47
2022-10-19T22:03:18.481Z,102452.50
2022-10-19T22:05:52.187Z,102455.16
2022-10-19T22:08:18.757Z,102445.50
2022-10-19T22:10:45.361Z,102444.69
2022-10-19T22:13:12.117Z,102444.56
2022-10-19T22:15:40.034Z,102436.16
2022-10-19T22:18:06.834Z,102437.13
2022-10-19T22:20:36.250Z,102440.09
2022-10-19T22:23:04.548Z,102436.84
2022-10-19T22:25:31.770Z,102435.19
2022-10-19T22:27:58.691Z,102438.69
2022-10-19T22:30:25.459Z,102428.91
2022-10-19T22:32:52.124Z,102428.06
2022-10-19T22:35:18.883Z,102426.38
2022-10-19T22:37:45.460Z,102418.31
2022-10-19T22:40:13.183Z,102418.31
2022-10-19T22:42:39.801Z,102428.34
2022-10-19T22:45:06.889Z,102424.72
2022-10-19T22:47:33.442Z,102427.50
2022-10-19T22:50:00.084Z,102432.91
2022-10-19T22:52:26.674Z,102430.56
2022-10-19T22:54:53.357Z,102426.81
2022-10-19T22:57:19.910Z,102421.63
2022-10-19T22:59:46.458Z,102427.78
2022-10-19T23:02:13.040Z,102422.47
2022-10-19T23:04:39.654Z,102418.00
2022-10-19T23:07:06.247Z,102415.66
2022-10-19T23:09:32.957Z,102419.97
2022-10-19T23:11:59.547Z,102415.50
2022-10-19T23:14:26.122Z,102412.03
2022-10-19T23:16:52.697Z,102410.34
2022-10-19T23:19:19.298Z,102410.47
2022-10-19T23:21:45.868Z,102404.59
2022-10-19T23:24:12.520Z,102403.78
2022-10-19T23:26:39.101Z,102399.47
2022-10-19T23:29:05.723Z,102399.59
2022-10-19T23:31:32.975Z,102402.94
2022-10-19T23:33:59.829Z,102402.13
2022-10-19T23:36:28.320Z,102401.13
2022-10-19T23:38:56.191Z,102416.03
2022-10-19T23:41:22.810Z,102405.56
2022-10-19T23:43:49.419Z,102400.41
2022-10-19T23:46:15.986Z,102414.63
2022-10-19T23:48:42.757Z,102409.34
2022-10-19T23:51:12.642Z,102413.09
2022-10-19T23:53:41.516Z,102409.59
2022-10-19T23:56:28.852Z,102412.53
2022-10-19T23:58:55.959Z,102409.28
